createdAt,value
2023-05-10T00:00:39.266Z,9.678086
2023-05-10T00:01:39.265Z,9.678062
2023-05-10T00:02:39.279Z,9.678055
2023-05-10T00:03:39.278Z,9.678040
2023-05-10T00:04:39.175Z,9.678077
2023-05-10T00:05:39.159Z,9.678091
2023-05-10T00:06:39.159Z,9.678088
2023-05-10T00:07:39.252Z,9.678066
2023-05-10T00:08:39.129Z,9.678125
2023-05-10T00:09:39.158Z,9.678140
2023-05-10T00:10:39.110Z,9.678126
2023-05-10T00:11:39.145Z,9.678110
2023-05-10T00:12:39.097Z,9.678074
2023-05-10T00:13:39.150Z,9.678085
2023-05-10T00:14:39.081Z,9.678086
2023-05-10T00:15:39.117Z,9.678073
2023-05-10T00:16:39.098Z,9.678053
2023-05-10T00:17:39.151Z,9.678058
2023-05-10T00:18:39.057Z,9.678089
2023-05-10T00:19:39.049Z,9.678099
2023-05-10T00:20:39.024Z,9.678082
2023-05-10T00:21:39.050Z,9.678074
2023-05-10T00:22:39.020Z,9.678066
2023-05-10T00:23:39.076Z,9.678031
2023-05-10T00:24:39.017Z,9.677999
2023-05-10T00:25:39.016Z,9.678016
2023-05-10T00:26:38.998Z,9.677942
2023-05-10T00:27:39.005Z,9.678055
2023-05-10T00:28:38.970Z,9.678123
2023-05-10T00:29:38.996Z,9.678110
2023-05-10T00:30:38.981Z,9.678118
2023-05-10T00:31:38.974Z,9.678102
2023-05-10T00:32:38.950Z,9.678087
2023-05-10T00:33:38.954Z,9.678061
2023-05-10T00:34:38.944Z,9.678070
2023-05-10T00:35:38.935Z,9.678032
2023-05-10T00:36:38.908Z,9.678045
2023-05-10T00:37:38.924Z,9.678097
2023-05-10T00:38:38.904Z,9.678081
2023-05-10T00:39:38.894Z,9.678063
2023-05-10T00:40:38.897Z,9.678050
2023-05-10T00:41:38.869Z,9.678049
2023-05-10T00:42:38.856Z,9.678035
2023-05-10T00:43:38.852Z,9.678062
2023-05-10T00:44:38.862Z,9.678058
2023-05-10T00:45:38.848Z,9.678032
2023-05-10T00:46:38.832Z,9.678014
2023-05-10T00:47:38.908Z,9.678011
2023-05-10T00:48:38.799Z,9.678016
2023-05-10T00:49:38.802Z,9.678057
2023-05-10T00:50:38.796Z,9.678053
2023-05-10T00:51:38.783Z,9.678065
2023-05-10T00:52:38.881Z,9.678007
2023-05-10T00:53:38.772Z,9.678050
2023-05-10T00:54:38.773Z,9.678005
2023-05-10T00:55:38.808Z,9.678031
2023-05-10T00:56:38.760Z,9.677989
2023-05-10T00:57:38.763Z,9.677966
2023-05-10T00:58:38.716Z,9.677988
2023-05-10T00:59:38.723Z,9.677991
2023-05-10T01:00:38.714Z,9.678041
2023-05-10T01:01:38.807Z,9.678050
2023-05-10T01:02:38.783Z,9.678057
2023-05-10T01:03:38.744Z,9.678007
2023-05-10T01:04:38.713Z,9.678059
2023-05-10T01:05:38.671Z,9.678023
2023-05-10T01:06:38.658Z,9.678037
2023-05-10T01:07:38.636Z,9.678053
2023-05-10T01:08:38.624Z,9.678043
2023-05-10T01:09:38.687Z,9.678052
2023-05-10T01:10:38.595Z,9.678024
2023-05-10T01:11:38.646Z,9.678020
2023-05-10T01:12:38.676Z,9.678032
2023-05-10T01:13:38.591Z,9.678040
2023-05-10T01:14:38.576Z,9.678010
2023-05-10T01:15:38.612Z,9.678042
2023-05-10T01:16:38.542Z,9.677993
2023-05-10T01:17:38.555Z,9.678045
2023-05-10T01:18:38.592Z,9.678056
2023-05-10T01:19:38.519Z,9.678041
2023-05-10T01:20:38.539Z,9.678079
2023-05-10T01:21:38.522Z,9.678028
2023-05-10T01:22:38.532Z,9.678032
2023-05-10T01:23:38.495Z,9.678042
2023-05-10T01:24:38.494Z,9.678050
2023-05-10T01:25:38.485Z,9.678070
2023-05-10T01:26:38.513Z,9.678041
2023-05-10T01:27:38.459Z,9.678028
2023-05-10T01:28:38.456Z,9.678033
2023-05-10T01:29:38.436Z,9.678032
2023-05-10T01:30:38.477Z,9.678007
2023-05-10T01:31:38.443Z,9.677999
2023-05-10T01:32:38.465Z,9.678003
2023-05-10T01:33:38.462Z,9.678003
2023-05-10T01:34:38.407Z,9.677987
2023-05-10T01:35:38.437Z,9.678003
2023-05-10T01:36:38.373Z,9.678043
2023-05-10T01:37:38.432Z,9.678040
2023-05-10T01:38:38.492Z,9.678010
2023-05-10T01:39:38.359Z,9.678076
2023-05-10T01:40:38.349Z,9.678118
2023-05-10T01:41:38.367Z,9.678073
2023-05-10T01:42:38.316Z,9.678025
2023-05-10T01:43:38.314Z,9.678034
2023-05-10T01:44:38.362Z,9.678019
2023-05-10T01:45:38.316Z,9.678011
2023-05-10T01:46:38.409Z,9.678018
2023-05-10T01:47:38.330Z,9.678070
2023-05-10T01:48:38.295Z,9.678056
2023-05-10T01:49:38.265Z,9.678024
2023-05-10T01:50:38.292Z,9.678055
2023-05-10T01:51:38.245Z,9.678031
2023-05-10T01:52:38.229Z,9.678064
2023-05-10T01:53:38.237Z,9.678076
2023-05-10T01:54:38.383Z,9.678098
2023-05-10T01:55:38.251Z,9.678095
2023-05-10T01:56:38.195Z,9.678067
2023-05-10T01:57:38.190Z,9.678082
2023-05-10T01:58:38.182Z,9.678112
2023-05-10T01:59:38.196Z,9.678107
2023-05-10T02:00:38.181Z,9.678092
2023-05-10T02:01:38.175Z,9.678101
2023-05-10T02:02:38.231Z,9.678162
2023-05-10T02:03:38.179Z,9.678092
2023-05-10T02:04:38.141Z,9.678076
2023-05-10T02:05:38.167Z,9.678008
2023-05-10T02:06:38.098Z,9.678025
2023-05-10T02:07:38.105Z,9.678149
2023-05-10T02:08:38.085Z,9.678053
2023-05-10T02:09:38.082Z,9.678051
2023-05-10T02:10:38.066Z,9.678131
2023-05-10T02:11:38.086Z,9.678185
2023-05-10T02:12:38.041Z,9.678164
2023-05-10T02:13:38.035Z,9.678207
2023-05-10T02:14:38.022Z,9.678177
2023-05-10T02:15:38.024Z,9.678116
2023-05-10T02:16:38.017Z,9.678114
2023-05-10T02:17:38.109Z,9.678115
2023-05-10T02:18:37.995Z,9.678143
2023-05-10T02:19:37.997Z,9.678144
2023-05-10T02:20:38.002Z,9.678223
2023-05-10T02:21:37.967Z,9.678170
2023-05-10T02:22:37.956Z,9.678157
2023-05-10T02:23:38.011Z,9.678226
2023-05-10T02:24:37.937Z,9.678188
2023-05-10T02:25:37.942Z,9.678181
2023-05-10T02:26:37.907Z,9.678194
2023-05-10T02:27:37.980Z,9.678161
2023-05-10T02:28:37.914Z,9.678131
2023-05-10T02:29:37.939Z,9.678149
2023-05-10T02:30:37.908Z,9.678157
2023-05-10T02:31:37.895Z,9.678134
2023-05-10T02:32:37.909Z,9.678172
2023-05-10T02:33:37.886Z,9.678218
2023-05-10T02:34:37.908Z,9.678156
2023-05-10T02:35:37.839Z,9.678180
2023-05-10T02:36:37.943Z,9.678199
2023-05-10T02:37:37.839Z,9.678173
2023-05-10T02:38:37.840Z,9.678135
2023-05-10T02:39:37.827Z,9.678118
2023-05-10T02:40:37.821Z,9.678087
2023-05-10T02:41:37.795Z,9.678104
2023-05-10T02:42:37.806Z,9.678087
2023-05-10T02:43:37.798Z,9.678048
2023-05-10T02:44:37.799Z,9.678122
2023-05-10T02:45:37.789Z,9.678138
2023-05-10T02:46:37.812Z,9.678136
2023-05-10T02:47:37.833Z,9.678131
2023-05-10T02:48:37.749Z,9.678164
2023-05-10T02:49:37.736Z,9.678162
2023-05-10T02:50:37.731Z,9.678115
2023-05-10T02:51:37.743Z,9.678149
2023-05-10T02:52:37.717Z,9.678234
2023-05-10T02:53:37.700Z,9.678178
2023-05-10T02:54:37.708Z,9.678259
2023-05-10T02:55:37.695Z,9.678214
2023-05-10T02:56:37.688Z,9.678251
2023-05-10T02:57:37.716Z,9.678222
2023-05-10T02:58:37.691Z,9.678205
2023-05-10T02:59:37.662Z,9.678197
2023-05-10T03:00:37.682Z,9.678227
2023-05-10T03:01:37.682Z,9.678168
2023-05-10T03:02:37.720Z,9.678163
2023-05-10T03:03:37.693Z,9.678182
2023-05-10T03:04:37.711Z,9.678144
2023-05-10T03:05:37.621Z,9.678182
2023-05-10T03:06:37.642Z,9.678156
2023-05-10T03:07:37.657Z,9.678213
2023-05-10T03:08:37.586Z,9.678210
2023-05-10T03:09:37.601Z,9.678158
2023-05-10T03:10:37.580Z,9.678126
2023-05-10T03:11:37.564Z,9.678180
2023-05-10T03:12:37.556Z,9.678153
2023-05-10T03:13:37.544Z,9.678151
2023-05-10T03:14:37.583Z,9.678144
2023-05-10T03:15:37.637Z,9.678134
2023-05-10T03:16:37.536Z,9.678148
2023-05-10T03:17:37.528Z,9.678161
2023-05-10T03:18:37.526Z,9.678144
2023-05-10T03:19:37.502Z,9.678145
2023-05-10T03:20:37.499Z,9.678144
2023-05-10T03:21:37.502Z,9.678172
2023-05-10T03:22:37.477Z,9.678181
2023-05-10T03:23:37.501Z,9.678171
2023-05-10T03:24:37.479Z,9.678137
2023-05-10T03:25:37.448Z,9.678156
2023-05-10T03:26:37.447Z,9.678119
2023-05-10T03:27:37.452Z,9.678116
2023-05-10T03:28:37.439Z,9.678125
2023-05-10T03:29:37.591Z,9.678115
2023-05-10T03:30:37.474Z,9.678111
2023-05-10T03:31:37.495Z,9.678110
2023-05-10T03:32:37.457Z,9.678141
2023-05-10T03:33:37.406Z,9.678123
2023-05-10T03:34:37.397Z,9.678114
2023-05-10T03:35:37.369Z,9.678137
2023-05-10T03:36:37.418Z,9.678161
2023-05-10T03:37:37.406Z,9.678142
2023-05-10T03:38:37.366Z,9.678149
2023-05-10T03:39:37.352Z,9.678167
2023-05-10T03:40:37.366Z,9.678158
2023-05-10T03:41:37.327Z,9.678144
2023-05-10T03:42:37.353Z,9.678133
2023-05-10T03:43:37.340Z,9.678124
2023-05-10T03:44:37.338Z,9.678126
2023-05-10T03:45:37.302Z,9.678142
2023-05-10T03:46:37.321Z,9.678161
2023-05-10T03:47:37.310Z,9.678171
2023-05-10T03:48:37.275Z,9.678167
2023-05-10T03:49:37.274Z,9.678209
2023-05-10T03:50:37.360Z,9.678180
2023-05-10T03:51:37.274Z,9.678175
2023-05-10T03:52:37.291Z,9.678159
2023-05-10T03:53:37.257Z,9.678197
2023-05-10T03:54:37.243Z,9.678165
2023-05-10T03:55:37.228Z,9.678122
2023-05-10T03:56:37.214Z,9.678169
2023-05-10T03:57:37.216Z,9.678174
2023-05-10T03:58:37.198Z,9.678166
2023-05-10T03:59:37.246Z,9.678175
2023-05-10T04:00:37.222Z,9.678201
2023-05-10T04:01:37.243Z,9.678169
2023-05-10T04:02:38.286Z,9.678189
2023-05-10T04:03:37.233Z,9.678209
2023-05-10T04:04:37.143Z,9.678168
2023-05-10T04:05:37.117Z,9.678146
2023-05-10T04:06:37.179Z,9.678181
2023-05-10T04:07:37.131Z,9.678138
2023-05-10T04:08:37.111Z,9.678155
2023-05-10T04:09:37.103Z,9.678157
2023-05-10T04:10:37.131Z,9.678169
2023-05-10T04:11:37.088Z,9.678123
2023-05-10T04:12:37.122Z,9.678138
2023-05-10T04:13:37.067Z,9.678128
2023-05-10T04:14:37.055Z,9.678139
2023-05-10T04:15:37.108Z,9.678250
2023-05-10T04:16:37.082Z,9.678256
2023-05-10T04:17:37.078Z,9.678267
2023-05-10T04:18:37.023Z,9.678261
2023-05-10T04:19:37.009Z,9.678237
2023-05-10T04:20:37.004Z,9.678249
2023-05-10T04:21:37.016Z,9.678234
2023-05-10T04:22:36.998Z,9.678238
2023-05-10T04:23:36.978Z,9.678211
2023-05-10T04:24:37.000Z,9.678194
2023-05-10T04:25:37.018Z,9.678221
2023-05-10T04:26:36.967Z,9.678207
2023-05-10T04:27:36.988Z,9.678251
2023-05-10T04:28:36.948Z,9.678270
2023-05-10T04:29:36.934Z,9.678218
2023-05-10T04:30:36.977Z,9.678202
2023-05-10T04:31:36.911Z,9.678202
2023-05-10T04:32:36.944Z,9.678201
2023-05-10T04:33:36.949Z,9.678233
2023-05-10T04:34:36.879Z,9.678264
2023-05-10T04:35:36.886Z,9.678227
2023-05-10T04:36:36.900Z,9.678222
2023-05-10T04:37:36.881Z,9.678226
2023-05-10T04:38:36.862Z,9.678305
2023-05-10T04:39:36.910Z,9.678166
2023-05-10T04:40:36.861Z,9.678166
2023-05-10T04:41:36.808Z,9.678223
2023-05-10T04:42:36.838Z,9.678194
2023-05-10T04:43:36.810Z,9.678226
2023-05-10T04:44:36.792Z,9.678197
2023-05-10T04:45:36.853Z,9.678178
2023-05-10T04:46:36.845Z,9.678199
2023-05-10T04:47:36.782Z,9.678211
2023-05-10T04:48:36.775Z,9.678211
2023-05-10T04:49:36.767Z,9.678240
2023-05-10T04:50:36.762Z,9.678183
2023-05-10T04:51:36.799Z,9.678183
2023-05-10T04:52:36.728Z,9.678222
2023-05-10T04:53:36.733Z,9.678271
2023-05-10T04:54:36.718Z,9.678221
2023-05-10T04:55:36.720Z,9.678092
2023-05-10T04:56:36.802Z,9.678091
2023-05-10T04:57:36.801Z,9.678179
2023-05-10T04:58:36.670Z,9.678229
2023-05-10T04:59:36.659Z,9.678235
2023-05-10T05:00:36.648Z,9.678210
2023-05-10T05:01:36.644Z,9.678195
2023-05-10T05:02:36.752Z,9.678238
2023-05-10T05:03:36.794Z,9.678174
2023-05-10T05:04:36.655Z,9.678158
2023-05-10T05:05:36.623Z,9.678228
2023-05-10T05:06:36.614Z,9.678226
2023-05-10T05:07:36.585Z,9.678226
2023-05-10T05:08:36.593Z,9.678244
2023-05-10T05:09:36.623Z,9.678263
2023-05-10T05:10:36.580Z,9.678256
2023-05-10T05:11:36.592Z,9.678205
2023-05-10T05:12:36.563Z,9.678226
2023-05-10T05:13:36.560Z,9.678237
2023-05-10T05:14:36.541Z,9.678203
2023-05-10T05:15:37.192Z,9.678145
2023-05-10T05:16:36.571Z,9.678191
2023-05-10T05:17:36.524Z,9.678271
2023-05-10T05:18:36.505Z,9.678254
2023-05-10T05:19:36.500Z,9.678234
2023-05-10T05:20:36.489Z,9.678229
2023-05-10T05:21:36.522Z,9.678242
2023-05-10T05:22:36.483Z,9.678167
2023-05-10T05:23:36.538Z,9.678189
2023-05-10T05:24:36.515Z,9.678223
2023-05-10T05:25:36.686Z,9.678185
2023-05-10T05:26:36.452Z,9.678179
2023-05-10T05:27:36.458Z,9.678157
2023-05-10T05:28:36.434Z,9.678204
2023-05-10T05:29:36.413Z,9.678211
2023-05-10T05:30:36.411Z,9.678201
2023-05-10T05:31:36.459Z,9.678235
2023-05-10T05:32:36.473Z,9.678218
2023-05-10T05:33:36.416Z,9.678206
2023-05-10T05:34:36.379Z,9.678180
2023-05-10T05:35:36.353Z,9.678239
2023-05-10T05:36:37.651Z,9.678221
2023-05-10T05:37:36.348Z,9.678105
2023-05-10T05:38:36.342Z,9.678127
2023-05-10T05:39:36.549Z,9.678161
2023-05-10T05:40:36.335Z,9.678094
2023-05-10T05:41:36.311Z,9.678152
2023-05-10T05:42:36.369Z,9.678164
2023-05-10T05:43:38.419Z,9.678142
2023-05-10T05:44:36.332Z,9.678142
2023-05-10T05:45:36.335Z,9.678175
2023-05-10T05:46:36.272Z,9.678173
2023-05-10T05:47:36.305Z,9.678201
2023-05-10T05:48:36.271Z,9.678180
2023-05-10T05:49:36.246Z,9.678197
2023-05-10T05:50:36.271Z,9.678191
2023-05-10T05:51:36.242Z,9.678183
2023-05-10T05:52:36.241Z,9.678182
2023-05-10T05:53:36.283Z,9.678186
2023-05-10T05:54:36.223Z,9.678178
2023-05-10T05:55:36.260Z,9.678165
2023-05-10T05:56:36.211Z,9.678185
2023-05-10T05:57:36.223Z,9.678199
2023-05-10T05:58:36.189Z,9.678202
2023-05-10T05:59:36.179Z,9.678187
2023-05-10T06:00:36.174Z,9.678209
2023-05-10T06:01:36.146Z,9.678186
2023-05-10T06:02:36.291Z,9.678205
2023-05-10T06:03:37.080Z,9.678166
2023-05-10T06:04:36.328Z,9.678160
2023-05-10T06:05:36.127Z,9.678185
2023-05-10T06:06:36.142Z,9.678214
2023-05-10T06:07:36.128Z,9.678215
2023-05-10T06:08:36.103Z,9.678232
2023-05-10T06:09:36.072Z,9.678196
2023-05-10T06:10:36.119Z,9.678185
2023-05-10T06:11:36.130Z,9.678180
2023-05-10T06:12:36.059Z,9.678163
2023-05-10T06:13:36.082Z,9.678202
2023-05-10T06:14:36.056Z,9.678167
2023-05-10T06:15:36.050Z,9.678167
2023-05-10T06:16:36.189Z,9.678164
2023-05-10T06:17:36.036Z,9.678132
2023-05-10T06:18:36.106Z,9.678181
2023-05-10T06:19:36.068Z,9.678180
2023-05-10T06:20:35.998Z,9.678205
2023-05-10T06:21:35.982Z,9.678131
2023-05-10T06:22:36.023Z,9.678169
2023-05-10T06:23:35.958Z,9.678146
2023-05-10T06:24:35.957Z,9.678123
2023-05-10T06:25:35.933Z,9.678125
2023-05-10T06:26:35.946Z,9.678109
2023-05-10T06:27:35.916Z,9.678120
2023-05-10T06:28:35.955Z,9.678123
2023-05-10T06:29:35.962Z,9.678122
2023-05-10T06:30:35.908Z,9.678132
2023-05-10T06:31:35.893Z,9.678127
2023-05-10T06:32:35.938Z,9.678158
2023-05-10T06:33:35.874Z,9.678114
2023-05-10T06:34:35.905Z,9.678091
2023-05-10T06:35:35.853Z,9.678128
2023-05-10T06:36:35.884Z,9.678101
2023-05-10T06:37:35.831Z,9.678122
2023-05-10T06:38:35.844Z,9.678129
2023-05-10T06:39:35.858Z,9.678134
2023-05-10T06:40:35.838Z,9.678122
2023-05-10T06:41:35.804Z,9.678118
2023-05-10T06:42:35.796Z,9.678133
2023-05-10T06:43:35.821Z,9.678135
2023-05-10T06:44:35.773Z,9.678152
2023-05-10T06:45:36.125Z,9.678132
2023-05-10T06:46:35.789Z,9.678144
2023-05-10T06:47:38.764Z,9.678103
2023-05-10T06:48:35.741Z,9.678115
2023-05-10T06:49:35.768Z,9.678119
2023-05-10T06:50:35.727Z,9.678139
2023-05-10T06:51:35.723Z,9.678101
2023-05-10T06:52:35.714Z,9.678091
2023-05-10T06:53:35.714Z,9.678115
2023-05-10T06:54:35.691Z,9.678140
2023-05-10T06:55:35.761Z,9.678138
2023-05-10T06:56:35.669Z,9.678104
2023-05-10T06:57:35.683Z,9.678102
2023-05-10T06:58:35.658Z,9.678081
2023-05-10T06:59:35.758Z,9.678120
2023-05-10T07:00:35.689Z,9.678132
2023-05-10T07:01:35.750Z,9.678161
2023-05-10T07:02:35.643Z,9.678081
2023-05-10T07:03:35.645Z,9.678131
2023-05-10T07:04:35.682Z,9.678040
2023-05-10T07:05:35.891Z,9.678077
2023-05-10T07:06:35.588Z,9.678127
2023-05-10T07:07:35.603Z,9.678114
2023-05-10T07:08:35.573Z,9.678138
2023-05-10T07:09:35.617Z,9.678157
2023-05-10T07:10:35.550Z,9.678125
2023-05-10T07:11:35.596Z,9.678078
2023-05-10T07:12:35.550Z,9.678090
2023-05-10T07:13:35.578Z,9.678137
2023-05-10T07:14:35.526Z,9.678112
2023-05-10T07:15:35.524Z,9.678101
2023-05-10T07:16:35.523Z,9.678147
2023-05-10T07:17:35.670Z,9.678110
2023-05-10T07:18:35.493Z,9.678111
2023-05-10T07:19:35.468Z,9.678066
2023-05-10T07:20:35.527Z,9.678092
2023-05-10T07:21:35.539Z,9.678133
2023-05-10T07:22:35.470Z,9.678061
2023-05-10T07:23:35.456Z,9.678108
2023-05-10T07:24:35.455Z,9.678132
2023-05-10T07:25:35.423Z,9.678104
2023-05-10T07:26:36.168Z,9.678144
2023-05-10T07:27:35.461Z,9.678130
2023-05-10T07:28:35.398Z,9.678128
2023-05-10T07:29:35.403Z,9.678108
2023-05-10T07:30:35.471Z,9.678219
2023-05-10T07:31:35.422Z,9.678200
2023-05-10T07:32:35.463Z,9.678139
2023-05-10T07:33:35.594Z,9.678159
2023-05-10T07:34:35.348Z,9.678107
2023-05-10T07:35:35.356Z,9.678170
2023-05-10T07:36:35.389Z,9.678107
2023-05-10T07:37:35.356Z,9.678084
2023-05-10T07:38:35.341Z,9.678183
2023-05-10T07:39:35.416Z,9.678127
2023-05-10T07:40:35.298Z,9.678214
2023-05-10T07:41:35.814Z,9.678143
2023-05-10T07:42:35.267Z,9.678063
2023-05-10T07:43:35.277Z,9.678157
2023-05-10T07:44:35.246Z,9.678137
2023-05-10T07:45:35.319Z,9.678107
2023-05-10T07:46:35.241Z,9.678139
2023-05-10T07:47:35.270Z,9.678096
2023-05-10T07:48:35.208Z,9.678114
2023-05-10T07:49:35.218Z,9.678076
2023-05-10T07:50:35.231Z,9.678162
2023-05-10T07:51:35.394Z,9.678131
2023-05-10T07:52:35.189Z,9.678120
2023-05-10T07:53:35.174Z,9.678119
2023-05-10T07:54:35.175Z,9.678067
2023-05-10T07:55:35.163Z,9.678119
2023-05-10T07:56:35.169Z,9.678154
2023-05-10T07:57:35.146Z,9.678126
2023-05-10T07:58:35.141Z,9.678102
2023-05-10T07:59:35.138Z,9.678083
2023-05-10T08:00:35.122Z,9.678042
2023-05-10T08:01:35.140Z,9.678036
2023-05-10T08:02:35.184Z,9.678044
2023-05-10T08:03:35.146Z,9.678109
2023-05-10T08:04:35.101Z,9.678190
2023-05-10T08:05:35.865Z,9.678078
2023-05-10T08:06:35.273Z,9.678131
2023-05-10T08:07:35.172Z,9.678185
2023-05-10T08:08:35.063Z,9.678102
2023-05-10T08:09:35.069Z,9.678126
2023-05-10T08:10:35.030Z,9.678082
2023-05-10T08:11:35.337Z,9.678113
2023-05-10T08:12:35.077Z,9.678031
2023-05-10T08:13:35.056Z,9.677969
2023-05-10T08:14:35.002Z,9.677991
2023-05-10T08:15:35.045Z,9.678106
2023-05-10T08:16:34.988Z,9.678098
2023-05-10T08:17:35.002Z,9.678068
2023-05-10T08:18:35.025Z,9.678077
2023-05-10T08:19:34.970Z,9.678060
2023-05-10T08:20:34.948Z,9.678094
2023-05-10T08:21:34.956Z,9.678184
2023-05-10T08:22:34.950Z,9.678082
2023-05-10T08:23:34.944Z,9.678053
2023-05-10T08:24:34.934Z,9.678095
2023-05-10T08:25:34.976Z,9.678071
2023-05-10T08:26:34.894Z,9.678006
2023-05-10T08:27:34.920Z,9.678077
2023-05-10T08:28:34.926Z,9.678050
2023-05-10T08:29:46.286Z,9.678108
2023-05-10T08:30:36.042Z,9.678090
2023-05-10T08:31:34.887Z,9.678041
2023-05-10T08:32:34.891Z,9.678002
2023-05-10T08:33:34.860Z,9.678041
2023-05-10T08:34:34.866Z,9.678054
2023-05-10T08:35:34.841Z,9.678113
2023-05-10T08:36:34.856Z,9.678088
2023-05-10T08:37:34.815Z,9.678086
2023-05-10T08:38:34.820Z,9.678097
2023-05-10T08:39:34.816Z,9.678111
2023-05-10T08:40:34.796Z,9.677987
2023-05-10T08:41:34.785Z,9.678060
2023-05-10T08:42:34.761Z,9.678057
2023-05-10T08:43:34.759Z,9.678108
2023-05-10T08:44:34.736Z,9.678041
2023-05-10T08:45:34.734Z,9.678027
2023-05-10T08:46:34.810Z,9.678065
2023-05-10T08:47:34.775Z,9.678017
2023-05-10T08:48:34.813Z,9.678005
2023-05-10T08:49:34.771Z,9.678014
2023-05-10T08:50:34.694Z,9.678122
2023-05-10T08:51:34.686Z,9.678132
2023-05-10T08:52:34.717Z,9.678135
2023-05-10T08:53:34.713Z,9.678135
2023-05-10T08:54:35.297Z,9.678094
2023-05-10T08:55:34.664Z,9.678119
2023-05-10T08:56:34.729Z,9.678119
2023-05-10T08:57:34.646Z,9.678141
2023-05-10T08:58:34.639Z,9.678121
2023-05-10T08:59:34.661Z,9.678160
2023-05-10T09:00:34.734Z,9.678131
2023-05-10T09:01:34.614Z,9.678121
2023-05-10T09:02:34.629Z,9.678151
2023-05-10T09:03:34.598Z,9.678099
2023-05-10T09:04:34.663Z,9.678147
2023-05-10T09:05:34.614Z,9.678111
2023-05-10T09:06:34.552Z,9.678085
2023-05-10T09:07:36.278Z,9.678134
2023-05-10T09:08:34.566Z,9.678055
2023-05-10T09:09:34.557Z,9.678137
2023-05-10T09:10:34.563Z,9.678171
2023-05-10T09:11:34.650Z,9.678111
2023-05-10T09:12:34.514Z,9.678108
2023-05-10T09:13:34.538Z,9.678163
2023-05-10T09:14:34.514Z,9.678168
2023-05-10T09:15:34.509Z,9.678129
2023-05-10T09:16:34.564Z,9.678114
2023-05-10T09:17:34.536Z,9.678185
2023-05-10T09:18:34.533Z,9.678109
2023-05-10T09:19:34.452Z,9.678103
2023-05-10T09:20:34.470Z,9.678144
2023-05-10T09:21:34.457Z,9.678137
2023-05-10T09:22:34.462Z,9.678148
2023-05-10T09:23:34.428Z,9.678149
2023-05-10T09:24:34.424Z,9.678144
2023-05-10T09:25:34.415Z,9.678123
2023-05-10T09:26:34.395Z,9.678132
2023-05-10T09:27:34.460Z,9.678163
2023-05-10T09:28:34.373Z,9.678131
2023-05-10T09:29:34.409Z,9.678152
2023-05-10T09:30:34.430Z,9.678133
2023-05-10T09:31:34.368Z,9.678149
2023-05-10T09:32:34.366Z,9.678134
2023-05-10T09:33:34.364Z,9.678057
2023-05-10T09:34:34.331Z,9.678102
2023-05-10T09:35:34.345Z,9.678138
2023-05-10T09:36:34.311Z,9.678110
2023-05-10T09:37:34.320Z,9.678134
2023-05-10T09:38:34.295Z,9.678152
2023-05-10T09:39:34.322Z,9.678103
2023-05-10T09:40:34.268Z,9.678097
2023-05-10T09:41:34.272Z,9.678148
2023-05-10T09:42:34.266Z,9.678127
2023-05-10T09:43:34.274Z,9.678102
2023-05-10T09:44:34.270Z,9.678108
2023-05-10T09:45:37.030Z,9.678098
2023-05-10T09:46:34.323Z,9.678100
2023-05-10T09:47:34.230Z,9.678118
2023-05-10T09:48:34.256Z,9.678121
2023-05-10T09:49:34.275Z,9.678116
2023-05-10T09:50:34.203Z,9.678126
2023-05-10T09:51:36.155Z,9.678110
2023-05-10T09:52:34.168Z,9.678097
2023-05-10T09:53:34.180Z,9.678118
2023-05-10T09:54:34.157Z,9.678103
2023-05-10T09:55:34.153Z,9.678133
2023-05-10T09:56:34.189Z,9.678094
2023-05-10T09:57:35.259Z,9.678095
2023-05-10T09:58:34.156Z,9.678116
2023-05-10T09:59:34.164Z,9.678116
2023-05-10T10:00:34.117Z,9.678095
2023-05-10T10:01:34.141Z,9.678080
2023-05-10T10:02:34.140Z,9.678049
2023-05-10T10:03:34.359Z,9.678030
2023-05-10T10:04:34.198Z,9.678107
2023-05-10T10:05:34.556Z,9.678056
2023-05-10T10:06:34.777Z,9.678087
2023-05-10T10:07:34.197Z,9.678059
2023-05-10T10:08:34.043Z,9.678036
2023-05-10T10:09:34.103Z,9.678080
2023-05-10T10:10:34.043Z,9.678111
2023-05-10T10:11:34.111Z,9.678117
2023-05-10T10:12:34.076Z,9.678119
2023-05-10T10:13:34.071Z,9.678088
2023-05-10T10:14:34.076Z,9.678117
2023-05-10T10:15:34.235Z,9.678114
2023-05-10T10:16:34.021Z,9.678103
2023-05-10T10:17:34.080Z,9.678052
2023-05-10T10:18:34.048Z,9.678044
2023-05-10T10:19:33.956Z,9.678127
2023-05-10T10:20:33.958Z,9.678168
2023-05-10T10:21:33.942Z,9.678116
2023-05-10T10:22:33.925Z,9.678069
2023-05-10T10:23:33.941Z,9.678020
2023-05-10T10:24:33.943Z,9.678077
2023-05-10T10:25:33.937Z,9.678094
2023-05-10T10:26:33.918Z,9.678120
2023-05-10T10:27:33.897Z,9.678141
2023-05-10T10:28:33.891Z,9.678150
2023-05-10T10:29:33.909Z,9.678139
2023-05-10T10:30:33.855Z,9.678124
2023-05-10T10:31:33.935Z,9.678098
2023-05-10T10:32:33.888Z,9.678102
2023-05-10T10:33:33.863Z,9.678094
2023-05-10T10:34:33.853Z,9.678128
2023-05-10T10:35:33.835Z,9.678145
2023-05-10T10:36:34.821Z,9.678106
2023-05-10T10:37:33.818Z,9.678086
2023-05-10T10:38:33.810Z,9.678069
2023-05-10T10:39:33.792Z,9.678084
2023-05-10T10:40:34.859Z,9.678162
2023-05-10T10:41:33.860Z,9.678131
2023-05-10T10:42:33.759Z,9.678147
2023-05-10T10:43:33.772Z,9.678137
2023-05-10T10:44:33.747Z,9.678147
2023-05-10T10:45:33.754Z,9.678131
2023-05-10T10:46:33.850Z,9.678087
2023-05-10T10:47:33.750Z,9.678045
2023-05-10T10:48:33.729Z,9.678115
2023-05-10T10:49:33.810Z,9.678122
2023-05-10T10:50:33.702Z,9.678094
2023-05-10T10:51:33.718Z,9.678114
2023-05-10T10:52:33.839Z,9.678081
2023-05-10T10:53:33.677Z,9.678127
2023-05-10T10:54:33.701Z,9.678115
2023-05-10T10:55:33.701Z,9.678098
2023-05-10T10:56:34.748Z,9.678087
2023-05-10T10:57:33.688Z,9.678169
2023-05-10T10:58:33.636Z,9.678071
2023-05-10T10:59:33.613Z,9.678114
2023-05-10T11:00:33.616Z,9.678196
2023-05-10T11:01:33.702Z,9.678073
2023-05-10T11:02:33.707Z,9.678104
2023-05-10T11:03:33.611Z,9.678128
2023-05-10T11:04:33.600Z,9.678151
2023-05-10T11:05:33.606Z,9.678118
2023-05-10T11:06:33.572Z,9.678123
2023-05-10T11:07:33.558Z,9.678139
2023-05-10T11:08:35.036Z,9.678166
2023-05-10T11:09:33.539Z,9.678179
2023-05-10T11:10:33.546Z,9.678180
2023-05-10T11:11:33.530Z,9.678108
2023-05-10T11:12:33.527Z,9.678068
2023-05-10T11:13:33.501Z,9.678132
2023-05-10T11:14:33.583Z,9.678131
2023-05-10T11:15:33.556Z,9.678121
2023-05-10T11:16:33.562Z,9.678159
2023-05-10T11:17:33.519Z,9.678092
2023-05-10T11:18:33.536Z,9.678086
2023-05-10T11:19:33.481Z,9.678110
2023-05-10T11:20:33.544Z,9.678143
2023-05-10T11:21:33.475Z,9.678097
2023-05-10T11:22:33.459Z,9.678102
2023-05-10T11:23:33.440Z,9.678108
2023-05-10T11:24:33.461Z,9.678099
2023-05-10T11:25:33.463Z,9.678098
2023-05-10T11:26:33.456Z,9.678099
2023-05-10T11:27:33.417Z,9.678077
2023-05-10T11:28:33.417Z,9.678082
2023-05-10T11:29:33.367Z,9.678084
2023-05-10T11:30:33.457Z,9.678090
2023-05-10T11:31:33.436Z,9.678109
2023-05-10T11:32:33.394Z,9.678079
2023-05-10T11:33:33.347Z,9.678094
2023-05-10T11:34:33.337Z,9.678104
2023-05-10T11:35:33.376Z,9.678114
2023-05-10T11:36:33.513Z,9.678080
2023-05-10T11:37:33.341Z,9.678106
2023-05-10T11:38:33.314Z,9.678081
2023-05-10T11:39:33.383Z,9.678132
2023-05-10T11:40:33.315Z,9.678104
2023-05-10T11:41:33.309Z,9.678103
2023-05-10T11:42:33.337Z,9.678110
2023-05-10T11:43:33.299Z,9.678108
2023-05-10T11:44:33.299Z,9.678134